createdAt,value
2023-02-18T00:01:49.287Z,102179.97
2023-02-18T00:04:17.023Z,102179.13
2023-02-18T00:06:46.165Z,102180.09
2023-02-18T00:09:13.934Z,102175.75
2023-02-18T00:11:41.663Z,102173.25
2023-02-18T00:14:13.323Z,102173.31
2023-02-18T00:16:41.522Z,102164.53
2023-02-18T00:19:12.842Z,102159.31
2023-02-18T00:21:40.701Z,102165.72
2023-02-18T00:24:12.541Z,102163.00
2023-02-18T00:26:40.283Z,102165.81
2023-02-18T00:29:08.099Z,102165.31
2023-02-18T00:31:38.068Z,102157.19
2023-02-18T00:34:06.963Z,102158.94
2023-02-18T00:36:35.782Z,102149.28
2023-02-18T00:39:07.640Z,102150.13
2023-02-18T00:41:37.275Z,102145.78
2023-02-18T00:44:05.789Z,102134.97
2023-02-18T00:46:34.546Z,102127.78
2023-02-18T00:49:02.711Z,102131.47
2023-02-18T00:51:30.528Z,102140.28
2023-02-18T00:53:58.427Z,102133.03
2023-02-18T00:56:26.253Z,102125.75
2023-02-18T00:58:55.377Z,102134.78
2023-02-18T01:01:24.264Z,102125.66
2023-02-18T01:03:52.079Z,102115.59
2023-02-18T01:06:19.819Z,102116.38
2023-02-18T01:08:47.550Z,102119.94
2023-02-18T01:11:15.844Z,102130.66
2023-02-18T01:13:43.710Z,102121.56
2023-02-18T01:16:12.847Z,102117.03
2023-02-18T01:18:41.686Z,102112.69
2023-02-18T01:21:10.222Z,102107.94
2023-02-18T01:23:39.566Z,102105.88
2023-02-18T01:26:07.752Z,102111.22
2023-02-18T01:28:35.857Z,102112.19
2023-02-18T01:31:07.750Z,102108.69
2023-02-18T01:33:37.630Z,102105.13
2023-02-18T01:36:06.936Z,102094.06
2023-02-18T01:38:35.137Z,102104.16
2023-02-18T01:41:02.935Z,102094.06
2023-02-18T01:43:30.856Z,102097.84
2023-02-18T01:46:04.623Z,102100.47
2023-02-18T01:48:35.025Z,102096.91
2023-02-18T01:51:10.271Z,102098.53
2023-02-18T01:53:46.562Z,102090.41
2023-02-18T01:56:22.208Z,102081.19
2023-02-18T01:58:51.286Z,102078.41
2023-02-18T02:01:19.265Z,102070.34
2023-02-18T02:03:47.027Z,102081.00
2023-02-18T02:06:19.845Z,102089.03
2023-02-18T02:08:49.955Z,102082.63
2023-02-18T02:11:25.630Z,102061.81
2023-02-18T02:14:12.682Z,102060.84
2023-02-18T02:16:47.148Z,102049.69
2023-02-18T02:19:35.917Z,102054.16
2023-02-18T02:22:41.915Z,102048.63
2023-02-18T02:25:27.597Z,102034.22
2023-02-18T02:28:24.035Z,102025.19
2023-02-18T02:31:15.716Z,102013.50
2023-02-18T02:34:04.347Z,102015.25
2023-02-18T02:36:40.328Z,102010.69
2023-02-18T02:39:15.921Z,102003.63
2023-02-18T02:41:50.965Z,101999.19
2023-02-18T02:44:23.167Z,102000.91
2023-02-18T02:46:56.258Z,101982.06
2023-02-18T02:49:34.477Z,101967.63
2023-02-18T02:52:09.051Z,101963.94
2023-02-18T02:54:36.872Z,101958.41
2023-02-18T02:57:11.325Z,101950.19
2023-02-18T02:59:42.588Z,101948.34
2023-02-18T03:02:25.552Z,101950.19
2023-02-18T03:05:04.954Z,101941.94
2023-02-18T03:08:03.919Z,101940.97
2023-02-18T03:10:44.844Z,101938.34
2023-02-18T03:13:23.784Z,101936.94
2023-02-18T03:15:57.145Z,101937.84
2023-02-18T03:18:33.304Z,101941.22
2023-02-18T03:21:06.784Z,101937.53
2023-02-18T03:23:40.964Z,101928.31
2023-02-18T03:26:10.798Z,101932.63
2023-02-18T03:28:40.417Z,101925.25
2023-02-18T03:31:13.191Z,101931.44
2023-02-18T03:33:46.706Z,101917.75
2023-02-18T03:36:14.605Z,101909.63
2023-02-18T03:38:46.807Z,101902.59
2023-02-18T03:41:14.923Z,101891.84
2023-02-18T03:43:50.041Z,101893.59
2023-02-18T03:46:18.127Z,101894.44
2023-02-18T03:48:46.165Z,101884.38
2023-02-18T03:51:13.979Z,101885.47
2023-02-18T03:53:43.109Z,101887.28
2023-02-18T03:56:11.026Z,101881.00
2023-02-18T03:58:39.308Z,101874.72
2023-02-18T04:01:07.695Z,101873.97
2023-02-18T04:03:35.530Z,101866.69
2023-02-18T04:06:03.490Z,101860.28
2023-02-18T04:08:31.273Z,101862.34
2023-02-18T04:11:01.462Z,101861.63
2023-02-18T04:13:29.233Z,101869.50
2023-02-18T04:15:57.014Z,101862.47
2023-02-18T04:18:24.959Z,101864.41
2023-02-18T04:20:53.042Z,101860.97
2023-02-18T04:23:20.845Z,101854.78
2023-02-18T04:25:48.539Z,101862.03
2023-02-18T04:28:18.491Z,101858.34
2023-02-18T04:30:48.081Z,101866.38
2023-02-18T04:33:16.587Z,101863.44
2023-02-18T04:35:44.333Z,101855.53
2023-02-18T04:38:12.749Z,101857.25
2023-02-18T04:40:40.464Z,101852.41
2023-02-18T04:43:08.218Z,101844.59
2023-02-18T04:45:37.312Z,101849.03
2023-02-18T04:48:05.662Z,101847.28
2023-02-18T04:50:33.484Z,101840.91
2023-02-18T04:53:01.223Z,101824.84
2023-02-18T04:55:29.032Z,101823.88
2023-02-18T04:57:56.768Z,101823.09
2023-02-18T05:00:24.717Z,101826.59
2023-02-18T05:02:53.835Z,101815.94
2023-02-18T05:05:21.711Z,101812.69
2023-02-18T05:07:49.414Z,101821.59
2023-02-18T05:10:18.632Z,101814.44
2023-02-18T05:12:46.510Z,101821.81
2023-02-18T05:15:14.234Z,101811.84
2023-02-18T05:17:42.009Z,101816.28
2023-02-18T05:20:13.178Z,101814.44
2023-02-18T05:22:40.903Z,101815.94
2023-02-18T05:25:09.095Z,101801.66
2023-02-18T05:27:36.974Z,101806.31
2023-02-18T05:30:05.345Z,101815.94
2023-02-18T05:32:33.222Z,101806.31
2023-02-18T05:35:00.986Z,101807.06
2023-02-18T05:37:30.080Z,101807.81
2023-02-18T05:39:57.822Z,101794.25
2023-02-18T05:42:25.684Z,101792.31
2023-02-18T05:44:53.379Z,101801.22
2023-02-18T05:47:21.106Z,101797.63
2023-02-18T05:49:48.822Z,101797.75
2023-02-18T05:52:16.570Z,101796.88
2023-02-18T05:54:45.723Z,101802.31
2023-02-18T05:57:15.248Z,101796.13
2023-02-18T05:59:42.957Z,101794.25
2023-02-18T06:02:10.709Z,101786.03
2023-02-18T06:04:39.269Z,101784.06
2023-02-18T06:07:07.609Z,101790.56
2023-02-18T06:09:35.374Z,101793.53
2023-02-18T06:12:04.669Z,101785.16
2023-02-18T06:14:32.825Z,101774.22
2023-02-18T06:17:00.611Z,101776.81
2023-02-18T06:19:28.352Z,101775.94
2023-02-18T06:21:56.631Z,101781.28
2023-02-18T06:24:24.355Z,101777.34
2023-02-18T06:26:52.081Z,101770.41
2023-02-18T06:29:21.216Z,101769.00
2023-02-18T06:31:49.100Z,101778.88
2023-02-18T06:34:17.483Z,101765.22
2023-02-18T06:36:45.242Z,101747.22
2023-02-18T06:39:13.056Z,101771.50
2023-02-18T06:41:41.475Z,101774.31
2023-02-18T06:44:09.237Z,101768.25
2023-02-18T06:46:38.602Z,101776.38
2023-02-18T06:49:06.404Z,101773.78
2023-02-18T06:51:34.258Z,101772.81
2023-02-18T06:54:01.969Z,101769.34
2023-02-18T06:56:31.040Z,101783.22
2023-02-18T06:58:58.946Z,101775.97
2023-02-18T07:01:26.820Z,101766.09
2023-02-18T07:03:56.034Z,101772.28
2023-02-18T07:06:26.729Z,101771.19
2023-02-18T07:08:54.464Z,101769.78
2023-02-18T07:11:25.529Z,101775.00
2023-02-18T07:13:53.274Z,101775.97
2023-02-18T07:16:21.052Z,101767.06
2023-02-18T07:18:51.835Z,101765.44
2023-02-18T07:21:20.961Z,101767.50
2023-02-18T07:23:48.826Z,101759.72
2023-02-18T07:26:16.774Z,101764.47
2023-02-18T07:28:44.496Z,101769.81
2023-02-18T07:31:12.398Z,101771.44
2023-02-18T07:33:40.256Z,101766.78
2023-02-18T07:36:09.767Z,101780.41
2023-02-18T07:38:39.041Z,101773.38
2023-02-18T07:41:06.902Z,101755.38
2023-02-18T07:43:34.682Z,101755.28
2023-02-18T07:46:07.521Z,101749.97
2023-02-18T07:48:35.349Z,101759.81
2023-02-18T07:51:07.346Z,101759.72
2023-02-18T07:53:35.250Z,101760.47
2023-02-18T07:56:05.946Z,101755.94
2023-02-18T07:58:36.042Z,101769.25
2023-02-18T08:01:06.371Z,101772.94
2023-02-18T08:03:34.666Z,101772.19
2023-02-18T08:06:03.965Z,101784.41
2023-02-18T08:08:35.722Z,101784.09
2023-02-18T08:11:18.352Z,101782.16
2023-02-18T08:13:47.274Z,101784.50
2023-02-18T08:16:15.482Z,101770.63
2023-02-18T08:18:43.359Z,101772.94
2023-02-18T08:21:11.210Z,101780.72
2023-02-18T08:23:38.962Z,101778.25
2023-02-18T08:26:08.603Z,101773.59
2023-02-18T08:28:37.006Z,101775.19
2023-02-18T08:31:05.236Z,101774.31
2023-02-18T08:33:33.421Z,101781.72
2023-02-18T08:36:02.143Z,101787.78
2023-02-18T08:38:29.892Z,101783.22
2023-02-18T08:41:03.968Z,101783.53
2023-02-18T08:43:33.217Z,101780.06
2023-02-18T08:46:01.175Z,101780.28
2023-02-18T08:48:30.420Z,101769.34
2023-02-18T08:50:58.387Z,101778.66
2023-02-18T08:53:26.405Z,101780.38
2023-02-18T08:55:54.210Z,101787.34
2023-02-18T08:58:21.977Z,101779.94
2023-02-18T09:00:51.412Z,101795.78
2023-02-18T09:03:19.216Z,101793.09
2023-02-18T09:05:47.135Z,101795.56
2023-02-18T09:08:14.922Z,101795.56
2023-02-18T09:10:43.951Z,101813.34
2023-02-18T09:13:13.370Z,101811.16
2023-02-18T09:15:41.161Z,101805.94
2023-02-18T09:18:12.545Z,101798.06
2023-02-18T09:20:41.239Z,101816.06
2023-02-18T09:23:08.950Z,101809.09
2023-02-18T09:25:36.707Z,101798.19
2023-02-18T09:28:04.541Z,101829.69
2023-02-18T09:30:32.356Z,101814.44
2023-02-18T09:33:00.115Z,101826.66
2023-02-18T09:35:29.208Z,101825.28
2023-02-18T09:37:56.907Z,101816.91
2023-02-18T09:40:29.786Z,101817.69
2023-02-18T09:42:59.033Z,101839.13
2023-02-18T09:45:26.980Z,101816.72
2023-02-18T09:47:55.114Z,101829.91
2023-02-18T09:50:24.768Z,101819.19
2023-02-18T09:52:54.179Z,101821.69
2023-02-18T09:55:25.196Z,101834.78
2023-02-18T09:57:57.081Z,101835.66
2023-02-18T10:00:30.567Z,101848.47
2023-02-18T10:03:04.055Z,101848.13
2023-02-18T10:05:33.184Z,101831.97
2023-02-18T10:08:06.896Z,101837.28
2023-02-18T10:10:40.321Z,101850.28
2023-02-18T10:13:13.846Z,101846.25
2023-02-18T10:15:43.149Z,101854.50
2023-02-18T10:18:23.367Z,101846.69
2023-02-18T10:20:53.372Z,101849.94
2023-02-18T10:23:24.921Z,101857.63
2023-02-18T10:25:53.297Z,101866.84
2023-02-18T10:28:26.125Z,101859.59
2023-02-18T10:30:58.867Z,101861.22
2023-02-18T10:33:34.953Z,101870.00
2023-02-18T10:36:16.952Z,101880.97
2023-02-18T10:39:03.211Z,101880.31
2023-02-18T10:41:38.126Z,101874.66
2023-02-18T10:44:42.970Z,101876.28
2023-02-18T10:47:21.804Z,101885.94
2023-02-18T10:49:58.984Z,101882.22
2023-02-18T10:52:30.417Z,101883.44
2023-02-18T10:55:05.083Z,101886.03
2023-02-18T10:57:33.514Z,101888.75
2023-02-18T11:00:10.707Z,101883.31
2023-02-18T11:02:40.448Z,101884.94
2023-02-18T11:05:20.692Z,101886.34
2023-02-18T11:07:51.525Z,101881.13
2023-02-18T11:10:25.614Z,101866.25
2023-02-18T11:12:58.690Z,101860.47
2023-02-18T11:15:28.579Z,101864.44
2023-02-18T11:17:59.306Z,101873.00
2023-02-18T11:20:35.132Z,101872.41
2023-02-18T11:23:19.588Z,101865.50
2023-02-18T11:26:02.996Z,101865.25
2023-02-18T11:28:40.546Z,101869.47
2023-02-18T11:31:09.960Z,101859.25
2023-02-18T11:33:41.185Z,101873.56
2023-02-18T11:36:20.948Z,101875.31
2023-02-18T11:38:50.841Z,101873.00
2023-02-18T11:41:22.379Z,101868.91
2023-02-18T11:43:53.136Z,101872.03
2023-02-18T11:46:22.788Z,101869.31
2023-02-18T11:48:51.650Z,101859.06
2023-02-18T11:51:21.359Z,101864.13
2023-02-18T11:53:59.707Z,101869.56
2023-02-18T11:56:32.439Z,101863.91
2023-02-18T11:59:01.711Z,101861.72
2023-02-18T12:01:37.421Z,101860.09
2023-02-18T12:04:12.368Z,101861.25
2023-02-18T12:06:47.540Z,101857.31
2023-02-18T12:09:23.312Z,101865.13
2023-02-18T12:11:55.287Z,101863.03
2023-02-18T12:14:24.727Z,101863.78
2023-02-18T12:17:15.916Z,101855.13
2023-02-18T12:20:09.237Z,101859.56
2023-02-18T12:22:44.302Z,101846.22
2023-02-18T12:25:25.082Z,101843.16
2023-02-18T12:28:03.901Z,101847.63
2023-02-18T12:30:51.546Z,101842.47
2023-02-18T12:33:30.062Z,101843.44
2023-02-18T12:36:09.208Z,101843.81
2023-02-18T12:38:55.907Z,101853.75
2023-02-18T12:41:35.440Z,101856.34
2023-02-18T12:44:18.086Z,101849.03
2023-02-18T12:47:09.632Z,101852.72
2023-02-18T12:49:59.196Z,101855.97
2023-02-18T12:52:36.922Z,101857.66
2023-02-18T12:55:33.325Z,101846.31
2023-02-18T12:58:13.796Z,101852.38
2023-02-18T13:00:59.980Z,101858.66
2023-02-18T13:04:05.989Z,101865.34
2023-02-18T13:06:55.201Z,101860.53
2023-02-18T13:09:37.983Z,101862.88
2023-02-18T13:12:12.194Z,101866.09
2023-02-18T13:14:47.693Z,101863.59
2023-02-18T13:17:19.093Z,101847.56
2023-02-18T13:19:52.227Z,101855.56
2023-02-18T13:22:23.792Z,101862.50
2023-02-18T13:24:53.402Z,101857.03
2023-02-18T13:27:27.350Z,101859.66
2023-02-18T13:30:11.600Z,101858.06
2023-02-18T13:32:49.607Z,101862.25
2023-02-18T13:35:22.350Z,101860.03
2023-02-18T13:38:04.228Z,101852.97
2023-02-18T13:40:33.246Z,101860.50
2023-02-18T13:43:20.225Z,101868.31
2023-02-18T13:46:09.371Z,101870.19
2023-02-18T13:48:44.872Z,101859.91
2023-02-18T13:51:14.474Z,101862.28
2023-02-18T13:53:44.339Z,101864.38
2023-02-18T13:56:21.313Z,101863.88
2023-02-18T13:58:51.732Z,101858.91
2023-02-18T14:01:26.426Z,101865.34
2023-02-18T14:04:01.053Z,101859.53
2023-02-18T14:06:32.384Z,101866.44
2023-02-18T14:09:37.577Z,101860.03
2023-02-18T14:12:26.291Z,101859.75
2023-02-18T14:14:54.868Z,101861.22
2023-02-18T14:17:35.789Z,101871.75
2023-02-18T14:20:46.713Z,101871.75
2023-02-18T14:23:43.397Z,101861.59
2023-02-18T14:26:20.328Z,101880.78
2023-02-18T14:28:55.722Z,101873.13
2023-02-18T14:31:47.157Z,101873.75
2023-02-18T14:34:54.145Z,101876.69
2023-02-18T14:37:52.108Z,101874.47
2023-02-18T14:40:41.059Z,101879.91
2023-02-18T14:43:20.149Z,101881.94
2023-02-18T14:46:06.726Z,101884.16
2023-02-18T14:48:48.196Z,101882.44
2023-02-18T14:51:18.037Z,101876.72
2023-02-18T14:53:47.818Z,101873.50
2023-02-18T14:56:19.559Z,101876.22
2023-02-18T14:58:49.377Z,101881.53
2023-02-18T15:01:22.882Z,101876.00
2023-02-18T15:03:52.456Z,101877.22
2023-02-18T15:06:25.878Z,101883.53
2023-02-18T15:08:55.198Z,101878.09
2023-02-18T15:11:26.105Z,101888.97
2023-02-18T15:13:54.404Z,101884.91
2023-02-18T15:16:32.365Z,101890.34
2023-02-18T15:19:03.407Z,101881.41
2023-02-18T15:21:32.801Z,101880.44
2023-02-18T15:24:07.666Z,101879.44
2023-02-18T15:26:37.804Z,101885.75
2023-02-18T15:29:07.067Z,101875.13
2023-02-18T15:31:39.764Z,101873.03
2023-02-18T15:34:28.048Z,101870.53
2023-02-18T15:36:56.281Z,101878.94
2023-02-18T15:39:26.255Z,101867.97
2023-02-18T15:41:55.566Z,101862.53
2023-02-18T15:44:26.221Z,101861.63
2023-02-18T15:46:54.609Z,101864.75
2023-02-18T15:49:25.617Z,101870.56
2023-02-18T15:51:57.762Z,101874.25
2023-02-18T15:54:27.432Z,101869.44
2023-02-18T15:56:57.617Z,101874.13
2023-02-18T15:59:30.277Z,101866.72
2023-02-18T16:02:04.247Z,101869.53
2023-02-18T16:04:34.591Z,101874.47
2023-02-18T16:07:05.778Z,101871.53
2023-02-18T16:09:35.149Z,101869.31
2023-02-18T16:12:06.562Z,101873.00
2023-02-18T16:14:36.318Z,101869.41
2023-02-18T16:17:09.855Z,101875.09
2023-02-18T16:20:02.867Z,101867.06
2023-02-18T16:22:36.666Z,101871.00
2023-02-18T16:25:17.284Z,101870.88
2023-02-18T16:27:52.185Z,101875.44
2023-02-18T16:30:22.286Z,101879.28
2023-02-18T16:32:50.418Z,101879.41
2023-02-18T16:35:18.740Z,101882.34
2023-02-18T16:37:50.067Z,101870.97
2023-02-18T16:40:29.475Z,101872.09
2023-02-18T16:42:59.329Z,101868.47
2023-02-18T16:45:34.459Z,101863.94
2023-02-18T16:48:02.856Z,101867.84
2023-02-18T16:50:32.716Z,101875.50
2023-02-18T16:53:01.319Z,101872.91
2023-02-18T16:55:31.515Z,101874.88
2023-02-18T16:57:59.486Z,101867.97
2023-02-18T17:00:27.269Z,101863.00
2023-02-18T17:02:57.671Z,101861.06
2023-02-18T17:05:27.397Z,101861.72
2023-02-18T17:07:55.333Z,101862.56
2023-02-18T17:10:23.197Z,101864.09
2023-02-18T17:12:52.304Z,101859.34
2023-02-18T17:15:29.338Z,101853.41
2023-02-18T17:17:59.163Z,101863.41
2023-02-18T17:20:27.373Z,101861.66
2023-02-18T17:22:56.237Z,101858.97
2023-02-18T17:25:29.859Z,101859.81
2023-02-18T17:27:58.973Z,101862.03
2023-02-18T17:30:26.871Z,101863.88
2023-02-18T17:32:54.790Z,101863.97
2023-02-18T17:35:24.256Z,101860.75
2023-02-18T17:37:52.039Z,101852.59
2023-02-18T17:40:21.894Z,101841.75
2023-02-18T17:42:49.960Z,101854.69
2023-02-18T17:45:29.846Z,101854.16
2023-02-18T17:47:57.936Z,101863.41
2023-02-18T17:50:26.505Z,101869.69
2023-02-18T17:52:55.323Z,101864.97
2023-02-18T17:55:27.108Z,101869.06
2023-02-18T17:57:55.298Z,101866.25
2023-02-18T18:00:28.101Z,101873.63
2023-02-18T18:02:56.453Z,101874.41
2023-02-18T18:05:25.835Z,101860.56
2023-02-18T18:07:53.662Z,101866.78
2023-02-18T18:10:25.604Z,101858.50
2023-02-18T18:12:53.330Z,101860.13
2023-02-18T18:15:30.951Z,101863.81
2023-02-18T18:17:59.547Z,101868.13
2023-02-18T18:20:29.735Z,101868.13
2023-02-18T18:22:59.679Z,101867.50
2023-02-18T18:25:29.280Z,101868.38
2023-02-18T18:27:57.123Z,101873.19
2023-02-18T18:30:30.157Z,101877.97
2023-02-18T18:32:59.976Z,101885.13
2023-02-18T18:35:30.656Z,101882.53
2023-02-18T18:37:58.668Z,101866.66
2023-02-18T18:40:28.600Z,101866.00
2023-02-18T18:42:57.665Z,101869.06
2023-02-18T18:45:27.607Z,101854.50
2023-02-18T18:47:56.420Z,101851.91
2023-02-18T18:50:26.600Z,101864.97
2023-02-18T18:52:55.588Z,101856.84
2023-02-18T18:55:28.606Z,101852.59
2023-02-18T18:57:57.284Z,101846.97
2023-02-18T19:00:27.995Z,101862.34
2023-02-18T19:02:56.008Z,101869.78
2023-02-18T19:05:31.214Z,101859.00
2023-02-18T19:07:59.969Z,101856.28
2023-02-18T19:10:31.481Z,101860.09
2023-02-18T19:13:03.223Z,101842.97
2023-02-18T19:15:31.347Z,101849.25
2023-02-18T19:17:59.223Z,101852.22
2023-02-18T19:20:33.132Z,101841.34
2023-02-18T19:23:00.891Z,101839.16
2023-02-18T19:25:28.913Z,101850.47
2023-02-18T19:27:56.828Z,101851.22
2023-02-18T19:30:26.227Z,101853.06
2023-02-18T19:32:56.117Z,101854.91
2023-02-18T19:35:24.886Z,101866.50
2023-02-18T19:37:54.073Z,101861.44
2023-02-18T19:40:23.804Z,101847.75
2023-02-18T19:42:51.985Z,101838.84
2023-02-18T19:45:20.232Z,101838.75
2023-02-18T19:47:48.760Z,101832.31
2023-02-18T19:50:17.482Z,101838.00
2023-02-18T19:52:45.236Z,101828.13
2023-02-18T19:55:14.445Z,101820.81
2023-02-18T19:57:42.216Z,101824.44
2023-02-18T20:00:13.673Z,101818.50
2023-02-18T20:02:41.812Z,101812.50
2023-02-18T20:05:10.966Z,101803.66
2023-02-18T20:07:41.488Z,101798.94
2023-02-18T20:10:12.829Z,101806.22
2023-02-18T20:12:42.290Z,101800.81
2023-02-18T20:15:10.376Z,101795.72
2023-02-18T20:17:38.724Z,101788.56
2023-02-18T20:20:07.502Z,101795.06
2023-02-18T20:22:35.520Z,101786.22
2023-02-18T20:25:03.559Z,101795.53
2023-02-18T20:27:31.366Z,101789.38
2023-02-18T20:30:00.924Z,101799.13
2023-02-18T20:32:28.855Z,101786.66
2023-02-18T20:34:56.935Z,101787.84
2023-02-18T20:37:24.847Z,101785.78
2023-02-18T20:39:52.636Z,101787.00
2023-02-18T20:42:20.402Z,101795.03
2023-02-18T20:44:49.333Z,101806.97
2023-02-18T20:47:18.899Z,101807.94
2023-02-18T20:49:47.281Z,101797.09
2023-02-18T20:52:15.099Z,101790.03
2023-02-18T20:54:42.933Z,101770.72
2023-02-18T20:57:10.868Z,101768.75
2023-02-18T20:59:38.673Z,101774.75
2023-02-18T21:02:06.632Z,101764.66
2023-02-18T21:04:35.805Z,101780.06
2023-02-18T21:07:03.694Z,101782.03
2023-02-18T21:09:34.197Z,101772.16
2023-02-18T21:12:01.942Z,101774.22
2023-02-18T21:14:29.789Z,101775.84
2023-02-18T21:16:57.569Z,101780.50
2023-02-18T21:19:25.376Z,101774.63
2023-02-18T21:21:54.512Z,101779.19
2023-02-18T21:24:22.293Z,101769.31
2023-02-18T21:26:50.121Z,101756.00
2023-02-18T21:29:17.909Z,101733.53
2023-02-18T21:31:45.801Z,101747.97
2023-02-18T21:34:15.606Z,101752.53
2023-02-18T21:36:44.137Z,101738.09
2023-02-18T21:39:13.208Z,101741.25
2023-02-18T21:41:41.703Z,101746.94
2023-02-18T21:44:09.838Z,101758.16
2023-02-18T21:46:38.288Z,101763.97
2023-02-18T21:49:06.899Z,101764.69
2023-02-18T21:51:55.186Z,101758.63
2023-02-18T21:54:26.342Z,101769.72
2023-02-18T21:56:54.594Z,101771.22
2023-02-18T21:59:26.783Z,101770.13
2023-02-18T22:01:55.178Z,101770.13
2023-02-18T22:04:23.448Z,101764.16
2023-02-18T22:06:51.246Z,101766.13
2023-02-18T22:09:19.250Z,101762.44
2023-02-18T22:11:48.519Z,101767.34
2023-02-18T22:14:17.794Z,101767.34
2023-02-18T22:16:45.947Z,101763.53
2023-02-18T22:19:14.903Z,101760.81
2023-02-18T22:21:43.188Z,101759.84
2023-02-18T22:24:13.277Z,101757.34
2023-02-18T22:26:41.287Z,101757.00
2023-02-18T22:29:13.141Z,101743.44
2023-02-18T22:31:41.502Z,101747.69
2023-02-18T22:34:10.697Z,101749.63
2023-02-18T22:36:38.640Z,101747.69
2023-02-18T22:39:07.517Z,101751.59
2023-02-18T22:41:35.921Z,101746.16
2023-02-18T22:44:05.913Z,101745.94
2023-02-18T22:46:36.845Z,101742.25
2023-02-18T22:49:05.956Z,101748.16
2023-02-18T22:51:37.677Z,101742.59
2023-02-18T22:54:06.863Z,101745.94
2023-02-18T22:56:34.749Z,101747.91
2023-02-18T22:59:02.696Z,101747.78
2023-02-18T23:01:32.685Z,101749.00
2023-02-18T23:04:06.091Z,101755.50
2023-02-18T23:06:34.264Z,101755.28
2023-02-18T23:09:02.094Z,101755.50
2023-02-18T23:11:29.833Z,101754.22
2023-02-18T23:14:15.503Z,101754.00
2023-02-18T23:17:01.343Z,101747.84
2023-02-18T23:19:32.675Z,101736.69
2023-02-18T23:22:00.385Z,101748.81
2023-02-18T23:24:28.714Z,101741.34
2023-02-18T23:26:56.485Z,101748.38
2023-02-18T23:29:24.206Z,101746.88
2023-02-18T23:31:52.004Z,101750.22
2023-02-18T23:34:19.787Z,101747.13
2023-02-18T23:36:49.228Z,101747.13
2023-02-18T23:39:18.957Z,101744.66
2023-02-18T23:41:48.249Z,101746.28
2023-02-18T23:44:18.440Z,101747.13
2023-02-18T23:46:46.633Z,101745.44
2023-02-18T23:49:16.100Z,101738.03
2023-02-18T23:51:44.334Z,101741.06
2023-02-18T23:54:13.533Z,101740.00
2023-02-18T23:56:41.912Z,101741.06
2023-02-18T23:59:09.747Z,101749.34
